createdAt,value
2023-04-28T00:01:38.929Z,8.10
2023-04-28T00:04:07.630Z,8.36
2023-04-28T00:06:34.887Z,8.40
2023-04-28T00:12:17.451Z,8.06
2023-04-28T00:14:47.741Z,8.04
2023-04-28T00:17:17.103Z,8.17
2023-04-28T00:19:53.420Z,8.12
2023-04-28T00:22:21.499Z,8.50
2023-04-28T00:24:48.352Z,8.09
2023-04-28T00:27:15.752Z,8.16
2023-04-28T00:29:42.567Z,7.94
2023-04-28T00:32:10.969Z,8.00
2023-04-28T00:34:41.537Z,8.23
2023-04-28T00:37:19.530Z,7.86
2023-04-28T00:40:02.298Z,8.25
2023-04-28T00:42:38.425Z,8.16
2023-04-28T00:45:10.254Z,8.23
2023-04-28T00:47:45.717Z,7.79
2023-04-28T00:50:31.720Z,7.90
2023-04-28T00:53:06.763Z,7.64
2023-04-28T00:55:35.642Z,7.47
2023-04-28T01:00:49.677Z,7.42
2023-04-28T01:03:19.588Z,7.38
2023-04-28T01:05:52.835Z,7.33
2023-04-28T01:08:27.373Z,7.45
2023-04-28T01:11:02.373Z,7.38
2023-04-28T01:13:55.706Z,7.29
2023-04-28T01:16:26.862Z,7.45
2023-04-28T01:18:55.432Z,7.94
2023-04-28T01:21:36.637Z,7.74
2023-04-28T01:24:21.743Z,8.35
2023-04-28T01:26:48.955Z,8.23
2023-04-28T01:29:15.961Z,8.40
2023-04-28T01:31:42.844Z,8.51
2023-04-28T01:34:09.783Z,8.46
2023-04-28T01:36:37.743Z,8.46
2023-04-28T01:39:11.713Z,8.39
2023-04-28T01:41:38.692Z,8.60
2023-04-28T01:46:51.855Z,8.42
2023-04-28T01:49:18.615Z,8.69
2023-04-28T01:51:45.427Z,7.95
2023-04-28T01:54:13.004Z,7.35
2023-04-28T01:56:40.646Z,7.29
2023-04-28T01:59:07.747Z,6.80
2023-04-28T02:01:35.008Z,6.72
2023-04-28T02:04:02.312Z,6.76
2023-04-28T02:06:29.467Z,6.74
2023-04-28T02:08:56.288Z,6.49
2023-04-28T02:11:23.101Z,6.64
2023-04-28T02:13:50.863Z,6.62
2023-04-28T02:16:17.936Z,7.13
2023-04-28T02:18:44.866Z,6.80
2023-04-28T02:21:12.670Z,6.90
2023-04-28T02:23:40.787Z,6.77
2023-04-28T02:26:07.755Z,6.73
2023-04-28T02:28:34.801Z,6.70
2023-04-28T02:31:09.720Z,6.76
2023-04-28T02:33:48.040Z,6.60
2023-04-28T02:36:15.644Z,7.28
2023-04-28T02:41:24.122Z,6.80
2023-04-28T02:43:59.394Z,6.65
2023-04-28T02:46:26.489Z,6.61
2023-04-28T02:48:53.878Z,6.43
2023-04-28T02:51:21.067Z,6.53
2023-04-28T02:53:48.316Z,6.29
2023-04-28T02:56:19.667Z,6.30
2023-04-28T02:58:46.592Z,6.09
2023-04-28T03:01:17.503Z,6.69
2023-04-28T03:07:04.176Z,6.40
2023-04-28T03:09:58.868Z,6.35
2023-04-28T03:12:25.883Z,6.37
2023-04-28T03:14:59.684Z,6.42
2023-04-28T03:17:27.635Z,6.35
2023-04-28T03:19:59.570Z,6.08
2023-04-28T03:22:27.830Z,5.84
2023-04-28T03:24:55.037Z,6.19
2023-04-28T03:27:37.658Z,6.59
2023-04-28T03:30:05.629Z,6.30
2023-04-28T03:32:32.547Z,6.15
2023-04-28T03:34:59.460Z,6.21
2023-04-28T03:37:26.460Z,6.83
2023-04-28T03:39:53.292Z,6.56
2023-04-28T03:42:20.128Z,6.33
2023-04-28T03:44:50.122Z,6.07
2023-04-28T03:47:16.896Z,6.33
2023-04-28T03:49:43.876Z,6.30
2023-04-28T03:52:10.833Z,6.06
2023-04-28T03:54:37.816Z,6.69
2023-04-28T03:57:07.611Z,6.94
2023-04-28T03:59:34.762Z,6.42
2023-04-28T04:02:01.654Z,6.28
2023-04-28T04:04:28.714Z,6.33
2023-04-28T04:06:56.041Z,6.85
2023-04-28T04:09:23.407Z,6.68
2023-04-28T04:11:50.618Z,6.03
2023-04-28T04:14:17.751Z,6.13
2023-04-28T04:16:44.768Z,6.26
2023-04-28T04:19:11.889Z,6.33
2023-04-28T04:21:38.758Z,6.14
2023-04-28T04:24:06.230Z,6.32
2023-04-28T04:26:33.513Z,6.51
2023-04-28T04:29:02.730Z,6.39
2023-04-28T04:31:29.902Z,6.83
2023-04-28T04:34:04.716Z,7.05
2023-04-28T04:39:39.012Z,6.50
2023-04-28T04:42:24.110Z,6.83
2023-04-28T04:44:52.257Z,6.88
2023-04-28T04:47:19.661Z,7.51
2023-04-28T04:49:50.292Z,8.01
2023-04-28T04:52:17.382Z,7.94
2023-04-28T04:54:44.389Z,8.92
2023-04-28T04:57:12.194Z,9.06
2023-04-28T04:59:39.232Z,9.96
2023-04-28T05:02:07.343Z,10.09
2023-04-28T05:04:36.952Z,9.70
2023-04-28T05:07:03.923Z,9.63
2023-04-28T05:09:32.082Z,10.55
2023-04-28T05:11:58.854Z,10.52
2023-04-28T05:14:25.806Z,11.50
2023-04-28T05:16:52.941Z,10.39
2023-04-28T05:19:20.058Z,9.83
2023-04-28T05:21:48.607Z,11.52
2023-04-28T05:24:15.930Z,10.60
2023-04-28T05:26:42.953Z,10.58
2023-04-28T05:29:09.728Z,11.99
2023-04-28T05:31:36.761Z,12.70
2023-04-28T05:34:03.635Z,12.67
2023-04-28T05:36:30.613Z,14.10
2023-04-28T05:38:57.562Z,14.01
2023-04-28T05:41:24.312Z,12.23
2023-04-28T05:43:51.593Z,12.34
2023-04-28T05:46:29.910Z,13.88
2023-04-28T05:49:01.524Z,13.24
2023-04-28T05:51:28.646Z,13.80
2023-04-28T05:53:55.528Z,13.71
2023-04-28T05:56:22.637Z,14.00
2023-04-28T05:58:50.902Z,13.76
2023-04-28T06:01:17.990Z,12.45
2023-04-28T06:03:45.647Z,14.13
2023-04-28T06:06:13.569Z,14.71
2023-04-28T06:08:40.998Z,14.94
2023-04-28T06:11:07.959Z,13.57
2023-04-28T06:13:34.774Z,13.82
2023-04-28T06:16:01.570Z,14.71
2023-04-28T06:18:32.639Z,14.61
2023-04-28T06:20:59.597Z,14.86
2023-04-28T06:23:26.378Z,14.23
2023-04-28T06:25:53.153Z,14.04
2023-04-28T06:28:21.626Z,14.38
2023-04-28T06:30:48.602Z,14.71
2023-04-28T06:33:15.643Z,14.36
2023-04-28T06:35:42.573Z,14.51
2023-04-28T06:38:09.501Z,14.16
2023-04-28T06:40:36.830Z,14.14
2023-04-28T06:43:04.260Z,13.30
2023-04-28T06:45:31.022Z,13.68
2023-04-28T06:47:58.012Z,13.85
2023-04-28T06:50:25.110Z,13.23
2023-04-28T06:52:52.009Z,13.50
2023-04-28T06:55:18.924Z,13.65
2023-04-28T06:57:46.063Z,14.87
2023-04-28T07:00:13.633Z,15.19
2023-04-28T07:02:40.764Z,13.97
2023-04-28T07:05:08.041Z,14.95
2023-04-28T07:07:37.923Z,14.73
2023-04-28T07:10:05.647Z,14.99
2023-04-28T07:12:32.481Z,14.58
2023-04-28T07:14:59.206Z,14.44
2023-04-28T07:17:26.525Z,14.16
2023-04-28T07:19:53.442Z,14.63
2023-04-28T07:22:20.339Z,14.90
2023-04-28T07:24:48.428Z,15.29
2023-04-28T07:27:15.276Z,15.43
2023-04-28T07:29:42.406Z,15.06
2023-04-28T07:32:10.851Z,15.56
2023-04-28T07:34:38.270Z,15.08
2023-04-28T07:37:05.078Z,14.27
2023-04-28T07:39:34.273Z,14.08
2023-04-28T07:42:03.213Z,14.53
2023-04-28T07:44:30.802Z,14.00
2023-04-28T07:46:59.287Z,14.80
2023-04-28T07:49:27.668Z,15.38
2023-04-28T07:51:55.865Z,14.94
2023-04-28T07:54:23.209Z,15.74
2023-04-28T07:56:50.371Z,15.94
2023-04-28T07:59:17.452Z,15.45
2023-04-28T08:01:44.389Z,15.57
2023-04-28T08:04:12.102Z,15.78
2023-04-28T08:06:40.431Z,16.06
2023-04-28T08:09:07.663Z,15.62
2023-04-28T08:11:34.965Z,16.18
2023-04-28T08:14:05.890Z,16.83
2023-04-28T08:16:34.655Z,16.38
2023-04-28T08:19:01.718Z,15.73
2023-04-28T08:21:28.706Z,15.31
2023-04-28T08:23:55.787Z,15.21
2023-04-28T08:26:24.708Z,14.57
2023-04-28T08:28:51.728Z,16.04
2023-04-28T08:31:18.854Z,16.01
2023-04-28T08:33:48.743Z,15.95
2023-04-28T08:36:16.165Z,16.74
2023-04-28T08:38:45.949Z,16.97
2023-04-28T08:41:15.517Z,17.29
2023-04-28T08:43:43.542Z,15.83
2023-04-28T08:46:11.573Z,16.03
2023-04-28T08:48:45.254Z,16.41
2023-04-28T08:51:19.310Z,15.30
2023-04-28T08:56:28.284Z,17.21
2023-04-28T08:58:55.551Z,16.12
2023-04-28T09:01:25.286Z,16.52
2023-04-28T09:03:54.784Z,16.40
2023-04-28T09:06:22.476Z,16.65
2023-04-28T09:08:49.454Z,15.91
2023-04-28T09:11:16.870Z,16.45
2023-04-28T09:13:43.658Z,16.98
2023-04-28T09:16:10.620Z,16.24
2023-04-28T09:18:37.759Z,15.34
2023-04-28T09:21:13.432Z,16.76
2023-04-28T09:23:51.047Z,16.27
2023-04-28T09:26:24.300Z,17.18
2023-04-28T09:29:11.575Z,17.57
2023-04-28T09:31:53.490Z,17.00
2023-04-28T09:34:22.322Z,17.38
2023-04-28T09:36:49.569Z,16.19
2023-04-28T09:39:29.657Z,15.87
2023-04-28T09:41:56.787Z,16.42
2023-04-28T09:44:24.091Z,16.62
2023-04-28T09:46:54.146Z,17.23
2023-04-28T09:49:21.402Z,17.53
2023-04-28T09:51:48.327Z,17.27
2023-04-28T09:54:21.328Z,17.46
2023-04-28T09:56:48.680Z,17.56
2023-04-28T09:59:15.572Z,17.95
2023-04-28T10:01:46.400Z,17.84
2023-04-28T10:04:14.222Z,17.99
2023-04-28T10:06:45.064Z,18.25
2023-04-28T10:09:19.374Z,18.07
2023-04-28T10:11:46.392Z,18.13
2023-04-28T10:14:13.714Z,18.02
2023-04-28T10:16:44.538Z,17.91
2023-04-28T10:19:22.811Z,17.98
2023-04-28T10:22:06.670Z,18.16
2023-04-28T10:25:08.718Z,17.70
2023-04-28T10:27:37.905Z,17.09
2023-04-28T10:30:28.873Z,17.16
2023-04-28T10:33:16.141Z,17.87
2023-04-28T10:35:46.249Z,17.78
2023-04-28T10:38:17.565Z,17.71
2023-04-28T10:40:54.415Z,17.83
2023-04-28T10:43:28.712Z,17.84
2023-04-28T10:46:01.854Z,17.87
2023-04-28T10:48:35.490Z,17.35
2023-04-28T10:51:05.386Z,17.98
2023-04-28T10:53:50.650Z,18.02
2023-04-28T10:56:24.422Z,18.03
2023-04-28T10:58:55.669Z,18.19
2023-04-28T11:01:24.548Z,17.33
2023-04-28T11:04:05.420Z,17.78
2023-04-28T11:06:34.461Z,18.28
2023-04-28T11:09:16.365Z,17.97
2023-04-28T11:12:01.489Z,18.34
2023-04-28T11:14:34.236Z,17.59
2023-04-28T11:17:08.553Z,18.33
2023-04-28T11:19:38.460Z,18.19
2023-04-28T11:22:23.527Z,18.19
2023-04-28T11:25:03.080Z,17.74
2023-04-28T11:27:34.687Z,18.35
2023-04-28T11:30:06.329Z,18.55
2023-04-28T11:32:35.204Z,17.76
2023-04-28T11:35:04.064Z,18.25
2023-04-28T11:37:34.308Z,18.45
2023-04-28T11:40:11.503Z,19.10
2023-04-28T11:42:48.290Z,18.87
2023-04-28T11:45:15.730Z,18.87
2023-04-28T11:47:48.706Z,19.23
2023-04-28T11:50:35.430Z,19.00
2023-04-28T11:53:04.897Z,19.01
2023-04-28T11:55:38.826Z,18.05
2023-04-28T11:58:25.124Z,18.68
2023-04-28T12:01:12.292Z,18.90
2023-04-28T12:03:51.060Z,18.54
2023-04-28T12:06:21.967Z,18.64
2023-04-28T12:08:50.343Z,19.18
2023-04-28T12:11:20.118Z,19.39
2023-04-28T12:14:12.081Z,19.18
2023-04-28T12:16:44.875Z,19.12
2023-04-28T12:19:15.984Z,18.95
2023-04-28T12:21:43.738Z,18.78
2023-04-28T12:24:21.905Z,19.20
2023-04-28T12:26:49.554Z,18.90
2023-04-28T12:29:38.675Z,18.94
2023-04-28T12:32:12.763Z,19.28
2023-04-28T12:34:47.085Z,19.15
2023-04-28T12:37:14.321Z,19.42
2023-04-28T12:39:51.043Z,19.35
2023-04-28T12:42:20.829Z,19.21
2023-04-28T12:44:47.940Z,19.56
2023-04-28T12:47:14.810Z,19.36
2023-04-28T12:49:42.032Z,19.81
2023-04-28T12:52:09.407Z,19.62
2023-04-28T12:54:37.439Z,19.23
2023-04-28T12:57:17.802Z,19.39
2023-04-28T12:59:48.529Z,19.24
2023-04-28T13:02:25.293Z,19.21
2023-04-28T13:04:55.196Z,19.08
2023-04-28T13:07:32.784Z,19.31
2023-04-28T13:10:00.177Z,19.16
2023-04-28T13:12:27.036Z,18.83
2023-04-28T13:15:01.349Z,18.87
2023-04-28T13:17:35.391Z,19.58
2023-04-28T13:20:08.690Z,19.03
2023-04-28T13:22:45.406Z,19.32
2023-04-28T13:25:20.665Z,18.49
2023-04-28T13:27:48.978Z,19.02
2023-04-28T13:30:15.878Z,19.37
2023-04-28T13:35:24.846Z,18.76
2023-04-28T13:38:04.549Z,18.95
2023-04-28T13:40:34.126Z,19.36
2023-04-28T13:45:46.472Z,19.49
2023-04-28T13:48:20.719Z,19.39
2023-04-28T13:50:56.114Z,19.55
2023-04-28T13:53:25.787Z,19.93
2023-04-28T13:58:42.017Z,18.93
2023-04-28T14:01:13.177Z,19.63
2023-04-28T14:03:41.675Z,19.34
2023-04-28T14:06:14.405Z,19.31
2023-04-28T14:08:52.778Z,19.72
2023-04-28T14:11:19.797Z,19.90
2023-04-28T14:13:53.903Z,19.37
2023-04-28T14:16:34.889Z,19.72
2023-04-28T14:19:06.800Z,18.87
2023-04-28T14:21:45.779Z,19.27
2023-04-28T14:24:16.644Z,19.43
2023-04-28T14:26:49.681Z,19.19
2023-04-28T14:29:23.304Z,19.30
2023-04-28T14:31:59.534Z,19.26
2023-04-28T14:34:26.911Z,19.46
2023-04-28T14:37:21.884Z,19.60
2023-04-28T14:39:57.725Z,19.38
2023-04-28T14:42:32.563Z,19.63
2023-04-28T14:45:25.587Z,19.49
2023-04-28T14:47:53.187Z,19.83
2023-04-28T14:53:07.062Z,19.67
2023-04-28T14:55:36.782Z,19.58
2023-04-28T14:58:10.314Z,19.59
2023-04-28T15:00:40.154Z,19.63
2023-04-28T15:05:59.255Z,18.89
2023-04-28T15:08:32.582Z,19.43
2023-04-28T15:10:59.716Z,19.35
2023-04-28T15:13:38.060Z,19.20
2023-04-28T15:16:34.486Z,19.27
2023-04-28T15:19:01.308Z,19.50
2023-04-28T15:21:35.436Z,19.43
2023-04-28T15:24:12.700Z,19.50
2023-04-28T15:32:03.700Z,18.62
2023-04-28T15:34:31.207Z,18.58
2023-04-28T15:37:30.305Z,19.06
2023-04-28T15:39:59.508Z,19.27
2023-04-28T15:45:11.267Z,19.53
2023-04-28T15:50:33.324Z,19.33
2023-04-28T15:55:54.188Z,19.09
2023-04-28T16:03:39.197Z,18.99
2023-04-28T16:06:11.125Z,18.71
2023-04-28T16:08:38.401Z,18.59
2023-04-28T16:11:06.094Z,18.63
2023-04-28T16:13:36.315Z,18.69
2023-04-28T16:16:03.919Z,18.49
2023-04-28T16:18:31.403Z,18.50
2023-04-28T16:20:58.394Z,18.26
2023-04-28T16:23:28.653Z,18.40
2023-04-28T16:25:55.598Z,18.13
2023-04-28T16:28:22.455Z,18.08
2023-04-28T16:30:49.721Z,18.14
2023-04-28T16:33:16.729Z,18.11
2023-04-28T16:35:43.463Z,17.98
2023-04-28T16:38:13.887Z,17.76
2023-04-28T16:40:43.994Z,17.80
2023-04-28T16:43:27.651Z,17.59
2023-04-28T16:45:57.566Z,17.69
2023-04-28T16:48:25.642Z,17.68
2023-04-28T16:50:52.871Z,17.71
2023-04-28T16:53:19.909Z,17.46
2023-04-28T16:55:46.985Z,17.51
2023-04-28T16:58:16.666Z,17.36
2023-04-28T17:00:46.958Z,17.37
2023-04-28T17:03:14.010Z,17.16
2023-04-28T17:05:41.685Z,16.99
2023-04-28T17:08:37.725Z,16.80
2023-04-28T17:11:05.113Z,16.59
2023-04-28T17:13:33.402Z,16.45
2023-04-28T17:16:00.850Z,16.34
2023-04-28T17:18:28.416Z,16.37
2023-04-28T17:20:56.932Z,16.51
2023-04-28T17:23:23.822Z,16.38
2023-04-28T17:25:51.102Z,16.02
2023-04-28T17:28:17.950Z,15.84
2023-04-28T17:30:47.840Z,15.77
2023-04-28T17:33:15.313Z,15.76
2023-04-28T17:35:51.984Z,15.81
2023-04-28T17:38:21.416Z,15.68
2023-04-28T17:40:57.038Z,15.45
2023-04-28T17:43:25.814Z,15.41
2023-04-28T17:45:56.644Z,15.39
2023-04-28T17:48:26.655Z,15.36
2023-04-28T17:50:54.516Z,15.41
2023-04-28T17:53:24.786Z,15.53
2023-04-28T17:55:52.113Z,15.33
2023-04-28T17:58:20.486Z,15.19
2023-04-28T18:00:47.990Z,15.25
2023-04-28T18:03:15.810Z,15.08
2023-04-28T18:05:43.048Z,14.69
2023-04-28T18:08:11.047Z,14.47
2023-04-28T18:10:38.426Z,14.42
2023-04-28T18:13:07.473Z,14.35
2023-04-28T18:15:35.493Z,14.09
2023-04-28T18:18:08.774Z,14.00
2023-04-28T18:47:38.571Z,13.59
2023-04-28T18:50:07.351Z,13.45
2023-04-28T18:52:34.074Z,13.28
2023-04-28T18:55:00.934Z,13.17
2023-04-28T18:57:27.679Z,13.26
2023-04-28T18:59:58.035Z,13.52
2023-04-28T19:02:25.200Z,13.12
2023-04-28T19:04:53.199Z,13.07
2023-04-28T19:07:22.812Z,13.07
2023-04-28T19:09:51.886Z,12.98
2023-04-28T19:12:19.369Z,12.59
2023-04-28T19:14:46.411Z,12.79
2023-04-28T19:17:13.537Z,12.49
2023-04-28T19:19:40.558Z,12.29
2023-04-28T19:22:41.765Z,12.22
2023-04-28T19:25:09.358Z,11.86
2023-04-28T19:27:41.336Z,11.92
2023-04-28T19:30:10.365Z,11.80
2023-04-28T19:32:37.664Z,11.70
2023-04-28T19:35:05.359Z,11.55
2023-04-28T19:37:34.211Z,11.37
2023-04-28T19:40:01.898Z,10.92
2023-04-28T19:42:28.764Z,10.94
2023-04-28T19:44:57.563Z,10.97
2023-04-28T19:47:37.090Z,10.56
2023-04-28T19:50:08.464Z,10.87
2023-04-28T19:52:40.897Z,10.52
2023-04-28T19:55:14.201Z,10.65
2023-04-28T19:57:41.256Z,10.85
2023-04-28T20:00:09.518Z,11.08
2023-04-28T20:02:38.728Z,10.96
2023-04-28T20:05:06.158Z,10.40
2023-04-28T20:07:33.058Z,10.78
2023-04-28T20:10:00.207Z,10.53
2023-04-28T20:12:27.054Z,10.77
2023-04-28T20:15:09.403Z,10.84
2023-04-28T20:17:36.373Z,10.92
2023-04-28T20:20:06.387Z,11.10
2023-04-28T20:22:33.445Z,11.21
2023-04-28T20:25:01.982Z,11.00
2023-04-28T20:27:29.633Z,11.06
2023-04-28T20:32:31.900Z,10.85
2023-04-28T20:35:17.004Z,10.70
2023-04-28T20:37:44.710Z,10.43
2023-04-28T20:40:15.680Z,10.45
2023-04-28T20:42:42.597Z,10.66
2023-04-28T20:45:09.782Z,10.71
2023-04-28T20:47:44.870Z,10.90
2023-04-28T20:50:12.265Z,10.75
2023-04-28T20:52:39.281Z,10.47
2023-04-28T20:55:06.578Z,10.34
2023-04-28T20:57:33.532Z,10.02
2023-04-28T21:00:00.296Z,10.14
2023-04-28T21:02:27.542Z,9.94
2023-04-28T21:04:57.021Z,10.18
2023-04-28T21:07:23.853Z,9.62
2023-04-28T21:09:53.754Z,9.87
2023-04-28T21:12:21.151Z,9.91
2023-04-28T21:14:48.015Z,9.67
2023-04-28T21:17:14.844Z,9.82
2023-04-28T21:19:42.175Z,9.76
2023-04-28T21:22:09.026Z,9.79
2023-04-28T21:24:35.786Z,9.24
2023-04-28T21:27:05.112Z,9.22
2023-04-28T21:29:32.037Z,9.43
2023-04-28T21:31:58.836Z,9.46
2023-04-28T21:34:26.655Z,9.45
2023-04-28T21:36:53.415Z,9.04
2023-04-28T21:39:20.196Z,8.94
2023-04-28T21:41:47.450Z,8.96
2023-04-28T21:44:14.328Z,8.75
2023-04-28T21:46:41.351Z,8.53
2023-04-28T21:49:08.416Z,8.93
2023-04-28T21:51:35.403Z,8.71
2023-04-28T21:54:03.341Z,8.62
2023-04-28T21:56:30.318Z,8.93
2023-04-28T21:58:57.396Z,8.94
2023-04-28T22:01:24.615Z,8.71
2023-04-28T22:03:51.886Z,8.38
2023-04-28T22:06:19.364Z,8.64
2023-04-28T22:08:46.858Z,8.20
2023-04-28T22:11:14.103Z,8.64
2023-04-28T22:13:40.791Z,8.68
2023-04-28T22:16:07.661Z,8.71
2023-04-28T22:18:34.850Z,8.53
2023-04-28T22:21:01.688Z,8.68
2023-04-28T22:23:28.381Z,8.77
2023-04-28T22:25:59.305Z,9.01
2023-04-28T22:28:26.666Z,9.05
2023-04-28T22:30:54.579Z,8.65
2023-04-28T22:33:21.795Z,8.49
2023-04-28T22:35:48.743Z,8.67
2023-04-28T22:38:15.446Z,8.63
2023-04-28T22:40:44.210Z,8.30
2023-04-28T22:43:11.344Z,7.90
2023-04-28T22:45:38.218Z,8.26
2023-04-28T22:48:05.742Z,8.63
2023-04-28T22:50:32.757Z,8.28
2023-04-28T22:52:59.436Z,8.25
2023-04-28T22:55:26.476Z,8.19
2023-04-28T22:57:53.227Z,8.48
2023-04-28T23:00:20.303Z,8.17
2023-04-28T23:02:47.584Z,7.94
2023-04-28T23:05:14.745Z,8.18
2023-04-28T23:07:41.767Z,8.75
2023-04-28T23:10:09.078Z,8.37
2023-04-28T23:12:35.747Z,8.43
2023-04-28T23:15:02.711Z,8.88
2023-04-28T23:17:29.789Z,8.66
2023-04-28T23:19:56.594Z,8.66
2023-04-28T23:22:23.449Z,9.07
2023-04-28T23:24:53.317Z,9.31
2023-04-28T23:27:20.399Z,9.06
2023-04-28T23:29:47.233Z,8.46
2023-04-28T23:32:14.519Z,8.86
2023-04-28T23:34:42.833Z,8.90
2023-04-28T23:37:10.520Z,8.03
2023-04-28T23:39:37.271Z,8.54
2023-04-28T23:42:04.213Z,8.40
2023-04-28T23:44:31.214Z,8.38
2023-04-28T23:46:58.149Z,8.63
2023-04-28T23:49:25.116Z,8.45
2023-04-28T23:51:53.040Z,8.47
2023-04-28T23:54:19.856Z,8.51
2023-04-28T23:56:47.142Z,8.27
2023-04-28T23:59:13.953Z,8.47
